sensor_id;sensor_type;location;lat;lon;timestamp;pressure;altitude;pressure_sealevel;temperature;humidity
11339;BME280;5724;42.684;23.252;2023-04-27T00:01:36;94075.88;;;5.93;63.86
11339;BME280;5724;42.684;23.252;2023-04-27T00:04:03;94058.84;;;6.05;63.92
11339;BME280;5724;42.684;23.252;2023-04-27T00:06:29;94071.94;;;5.91;62.98
11339;BME280;5724;42.684;23.252;2023-04-27T00:08:54;94055.25;;;5.80;63.83
11339;BME280;5724;42.684;23.252;2023-04-27T00:11:20;94065.84;;;5.73;63.94
11339;BME280;5724;42.684;23.252;2023-04-27T00:13:46;94074.81;;;5.86;63.75
11339;BME280;5724;42.684;23.252;2023-04-27T00:16:12;94077.50;;;5.86;64.62
11339;BME280;5724;42.684;23.252;2023-04-27T00:18:38;94081.59;;;5.80;64.19
11339;BME280;5724;42.684;23.252;2023-04-27T00:21:03;94076.81;;;5.77;63.84
11339;BME280;5724;42.684;23.252;2023-04-27T00:23:29;94077.75;;;5.81;64.12
11339;BME280;5724;42.684;23.252;2023-04-27T00:25:54;94076.34;;;5.74;64.23
11339;BME280;5724;42.684;23.252;2023-04-27T00:28:20;94079.97;;;5.79;64.49
11339;BME280;5724;42.684;23.252;2023-04-27T00:30:45;94083.69;;;5.74;63.75
11339;BME280;5724;42.684;23.252;2023-04-27T00:33:11;94074.78;;;5.73;63.35
11339;BME280;5724;42.684;23.252;2023-04-27T00:35:36;94083.34;;;5.63;63.55
11339;BME280;5724;42.684;23.252;2023-04-27T00:38:02;94071.03;;;5.66;64.00
11339;BME280;5724;42.684;23.252;2023-04-27T00:40:27;94068.19;;;5.62;64.23
11339;BME280;5724;42.684;23.252;2023-04-27T00:42:53;94069.97;;;5.58;64.33
11339;BME280;5724;42.684;23.252;2023-04-27T00:45:18;94079.47;;;5.52;64.74
11339;BME280;5724;42.684;23.252;2023-04-27T00:47:44;94070.63;;;5.43;64.88
11339;BME280;5724;42.684;23.252;2023-04-27T00:50:10;94066.97;;;5.39;65.03
11339;BME280;5724;42.684;23.252;2023-04-27T00:52:36;94061.84;;;5.25;65.15
11339;BME280;5724;42.684;23.252;2023-04-27T00:55:03;94090.63;;;5.30;64.67
11339;BME280;5724;42.684;23.252;2023-04-27T00:57:30;94070.75;;;5.26;64.91
11339;BME280;5724;42.684;23.252;2023-04-27T00:59:56;94037.28;;;4.88;65.40
11339;BME280;5724;42.684;23.252;2023-04-27T01:02:25;94064.63;;;5.16;65.71
11339;BME280;5724;42.684;23.252;2023-04-27T01:04:51;94079.69;;;5.26;65.67
11339;BME280;5724;42.684;23.252;2023-04-27T01:07:17;94078.34;;;5.11;65.42
11339;BME280;5724;42.684;23.252;2023-04-27T01:09:43;94075.63;;;5.11;65.93
11339;BME280;5724;42.684;23.252;2023-04-27T01:12:08;94085.69;;;5.11;65.94
11339;BME280;5724;42.684;23.252;2023-04-27T01:14:35;94084.31;;;5.05;66.31
11339;BME280;5724;42.684;23.252;2023-04-27T01:17:01;94086.56;;;5.03;65.99
11339;BME280;5724;42.684;23.252;2023-04-27T01:19:26;94078.50;;;4.94;66.56
11339;BME280;5724;42.684;23.252;2023-04-27T01:21:53;94084.81;;;4.98;66.32
11339;BME280;5724;42.684;23.252;2023-04-27T01:24:18;94083.63;;;4.87;66.78
11339;BME280;5724;42.684;23.252;2023-04-27T01:26:44;94086.13;;;4.92;66.50
11339;BME280;5724;42.684;23.252;2023-04-27T01:29:09;94097.56;;;4.98;66.38
11339;BME280;5724;42.684;23.252;2023-04-27T01:31:35;94056.56;;;4.66;66.84
11339;BME280;5724;42.684;23.252;2023-04-27T01:34:00;94092.94;;;4.98;66.92
11339;BME280;5724;42.684;23.252;2023-04-27T01:36:26;94096.16;;;4.92;66.85
11339;BME280;5724;42.684;23.252;2023-04-27T01:38:52;94096.97;;;4.92;66.88
11339;BME280;5724;42.684;23.252;2023-04-27T01:41:17;94102.53;;;4.96;65.76
11339;BME280;5724;42.684;23.252;2023-04-27T01:43:42;94079.06;;;4.79;66.17
11339;BME280;5724;42.684;23.252;2023-04-27T01:46:10;94089.91;;;4.79;66.45
11339;BME280;5724;42.684;23.252;2023-04-27T01:48:37;94100.78;;;4.91;66.12
11339;BME280;5724;42.684;23.252;2023-04-27T01:51:03;94102.66;;;4.99;65.65
11339;BME280;5724;42.684;23.252;2023-04-27T01:53:29;94106.22;;;4.91;65.96
11339;BME280;5724;42.684;23.252;2023-04-27T01:55:55;94096.66;;;4.94;65.44
11339;BME280;5724;42.684;23.252;2023-04-27T01:58:20;94104.03;;;4.84;66.99
11339;BME280;5724;42.684;23.252;2023-04-27T02:00:46;94101.59;;;4.92;66.63
11339;BME280;5724;42.684;23.252;2023-04-27T02:03:11;94107.78;;;4.92;65.54
11339;BME280;5724;42.684;23.252;2023-04-27T02:05:37;94101.53;;;5.00;65.68
11339;BME280;5724;42.684;23.252;2023-04-27T02:08:02;94104.09;;;4.97;65.02
11339;BME280;5724;42.684;23.252;2023-04-27T02:10:28;94104.78;;;4.94;65.49
11339;BME280;5724;42.684;23.252;2023-04-27T02:12:53;94107.16;;;4.95;65.34
11339;BME280;5724;42.684;23.252;2023-04-27T02:15:19;94104.44;;;4.95;65.02
11339;BME280;5724;42.684;23.252;2023-04-27T02:17:44;94104.72;;;5.02;65.83
11339;BME280;5724;42.684;23.252;2023-04-27T02:20:11;94098.25;;;4.95;65.24
11339;BME280;5724;42.684;23.252;2023-04-27T02:22:40;94113.47;;;4.99;64.63
11339;BME280;5724;42.684;23.252;2023-04-27T02:25:07;94098.81;;;5.00;65.53
11339;BME280;5724;42.684;23.252;2023-04-27T02:27:36;94112.97;;;5.06;64.83
11339;BME280;5724;42.684;23.252;2023-04-27T02:30:10;94102.00;;;5.02;64.91
11339;BME280;5724;42.684;23.252;2023-04-27T02:32:36;94117.94;;;5.04;63.50
11339;BME280;5724;42.684;23.252;2023-04-27T02:35:02;94089.78;;;4.96;64.52
11339;BME280;5724;42.684;23.252;2023-04-27T02:37:28;94104.50;;;5.07;63.40
11339;BME280;5724;42.684;23.252;2023-04-27T02:39:53;94116.53;;;5.18;63.73
11339;BME280;5724;42.684;23.252;2023-04-27T02:42:19;94120.38;;;5.17;63.88
11339;BME280;5724;42.684;23.252;2023-04-27T02:44:45;94121.38;;;5.13;63.65
11339;BME280;5724;42.684;23.252;2023-04-27T02:47:10;94119.91;;;5.15;63.51
11339;BME280;5724;42.684;23.252;2023-04-27T02:49:36;94111.50;;;5.08;63.55
11339;BME280;5724;42.684;23.252;2023-04-27T02:52:02;94119.97;;;5.07;63.36
11339;BME280;5724;42.684;23.252;2023-04-27T02:54:28;94112.63;;;5.07;63.62
11339;BME280;5724;42.684;23.252;2023-04-27T02:56:53;94127.91;;;5.12;63.51
11339;BME280;5724;42.684;23.252;2023-04-27T02:59:19;94125.38;;;5.07;63.48
11339;BME280;5724;42.684;23.252;2023-04-27T03:01:45;94127.97;;;5.03;63.56
11339;BME280;5724;42.684;23.252;2023-04-27T03:04:10;94127.63;;;5.05;63.71
11339;BME280;5724;42.684;23.252;2023-04-27T03:06:41;94066.34;;;4.50;63.43
11339;BME280;5724;42.684;23.252;2023-04-27T03:09:06;94128.19;;;4.89;63.22
11339;BME280;5724;42.684;23.252;2023-04-27T03:11:32;94144.47;;;4.81;63.96
11339;BME280;5724;42.684;23.252;2023-04-27T03:13:57;94134.72;;;4.88;63.55
11339;BME280;5724;42.684;23.252;2023-04-27T03:16:23;94111.00;;;4.65;63.74
11339;BME280;5724;42.684;23.252;2023-04-27T03:18:48;94144.47;;;4.81;64.25
11339;BME280;5724;42.684;23.252;2023-04-27T03:21:14;94141.78;;;4.81;63.94
11339;BME280;5724;42.684;23.252;2023-04-27T03:23:41;94141.78;;;4.81;64.38
11339;BME280;5724;42.684;23.252;2023-04-27T03:26:10;94145.31;;;4.73;64.99
11339;BME280;5724;42.684;23.252;2023-04-27T03:28:36;94143.28;;;4.70;64.01
11339;BME280;5724;42.684;23.252;2023-04-27T03:31:09;94154.38;;;4.77;64.19
11339;BME280;5724;42.684;23.252;2023-04-27T03:33:35;94164.13;;;4.69;64.06
11339;BME280;5724;42.684;23.252;2023-04-27T03:36:03;94155.91;;;4.57;63.90
11339;BME280;5724;42.684;23.252;2023-04-27T03:38:29;94159.53;;;4.61;63.28
11339;BME280;5724;42.684;23.252;2023-04-27T03:40:55;94157.97;;;4.60;63.60
11339;BME280;5724;42.684;23.252;2023-04-27T03:43:23;94154.66;;;4.54;63.62
11339;BME280;5724;42.684;23.252;2023-04-27T03:45:49;94168.00;;;4.59;64.46
11339;BME280;5724;42.684;23.252;2023-04-27T03:48:15;94158.75;;;4.60;64.20
11339;BME280;5724;42.684;23.252;2023-04-27T03:50:41;94165.66;;;4.49;64.55
11339;BME280;5724;42.684;23.252;2023-04-27T03:53:07;94162.00;;;4.54;64.36
11339;BME280;5724;42.684;23.252;2023-04-27T03:55:37;94170.59;;;4.47;64.33
11339;BME280;5724;42.684;23.252;2023-04-27T03:58:02;94165.53;;;4.46;64.95
11339;BME280;5724;42.684;23.252;2023-04-27T04:00:27;94171.41;;;4.39;62.99
11339;BME280;5724;42.684;23.252;2023-04-27T04:02:53;94169.47;;;4.48;63.77
11339;BME280;5724;42.684;23.252;2023-04-27T04:05:19;94184.59;;;4.49;64.58
11339;BME280;5724;42.684;23.252;2023-04-27T04:07:44;94176.66;;;4.44;64.10
11339;BME280;5724;42.684;23.252;2023-04-27T04:10:10;94180.16;;;4.45;64.13
11339;BME280;5724;42.684;23.252;2023-04-27T04:12:35;94187.66;;;4.39;64.14
11339;BME280;5724;42.684;23.252;2023-04-27T04:15:02;94187.63;;;4.48;64.06
11339;BME280;5724;42.684;23.252;2023-04-27T04:17:28;94197.81;;;4.42;63.65
11339;BME280;5724;42.684;23.252;2023-04-27T04:19:53;94201.63;;;4.41;64.31
11339;BME280;5724;42.684;23.252;2023-04-27T04:22:19;94196.41;;;4.36;64.26
11339;BME280;5724;42.684;23.252;2023-04-27T04:24:45;94201.31;;;4.43;63.56
11339;BME280;5724;42.684;23.252;2023-04-27T04:27:10;94192.56;;;4.46;64.02
11339;BME280;5724;42.684;23.252;2023-04-27T04:29:36;94200.50;;;4.51;63.33
11339;BME280;5724;42.684;23.252;2023-04-27T04:32:03;94213.19;;;4.59;63.73
11339;BME280;5724;42.684;23.252;2023-04-27T04:34:28;94210.94;;;4.70;63.35
11339;BME280;5724;42.684;23.252;2023-04-27T04:36:54;94207.47;;;4.60;63.05
11339;BME280;5724;42.684;23.252;2023-04-27T04:39:23;94221.44;;;4.71;63.20
11339;BME280;5724;42.684;23.252;2023-04-27T04:41:49;94216.63;;;4.77;62.01
11339;BME280;5724;42.684;23.252;2023-04-27T04:44:15;94219.25;;;4.65;62.05
11339;BME280;5724;42.684;23.252;2023-04-27T04:46:41;94228.41;;;4.72;63.22
11339;BME280;5724;42.684;23.252;2023-04-27T04:49:07;94219.00;;;4.78;62.87
11339;BME280;5724;42.684;23.252;2023-04-27T04:51:32;94231.53;;;4.92;61.72
11339;BME280;5724;42.684;23.252;2023-04-27T04:53:58;94209.63;;;4.76;62.40
11339;BME280;5724;42.684;23.252;2023-04-27T04:56:24;94218.31;;;4.90;62.11
11339;BME280;5724;42.684;23.252;2023-04-27T04:58:49;94242.16;;;5.05;62.00
11339;BME280;5724;42.684;23.252;2023-04-27T05:01:15;94233.31;;;5.17;62.27
11339;BME280;5724;42.684;23.252;2023-04-27T05:03:40;94232.66;;;5.20;62.08
11339;BME280;5724;42.684;23.252;2023-04-27T05:06:06;94253.28;;;5.42;62.29
11339;BME280;5724;42.684;23.252;2023-04-27T05:08:32;94246.88;;;5.17;63.39
11339;BME280;5724;42.684;23.252;2023-04-27T05:10:57;94249.63;;;5.08;63.25
11339;BME280;5724;42.684;23.252;2023-04-27T05:13:23;94256.22;;;4.90;62.54
11339;BME280;5724;42.684;23.252;2023-04-27T05:15:51;94246.47;;;4.98;62.79
11339;BME280;5724;42.684;23.252;2023-04-27T05:18:17;94255.69;;;5.05;63.44
11339;BME280;5724;42.684;23.252;2023-04-27T05:20:43;94250.72;;;5.07;64.96
11339;BME280;5724;42.684;23.252;2023-04-27T05:23:08;94256.22;;;4.90;65.00
11339;BME280;5724;42.684;23.252;2023-04-27T05:25:34;94259.38;;;4.92;65.60
11339;BME280;5724;42.684;23.252;2023-04-27T05:28:06;94265.91;;;5.00;64.97
11339;BME280;5724;42.684;23.252;2023-04-27T05:30:32;94268.81;;;4.95;65.45
11339;BME280;5724;42.684;23.252;2023-04-27T05:32:58;94263.44;;;4.77;66.63
11339;BME280;5724;42.684;23.252;2023-04-27T05:35:23;94264.75;;;4.63;66.86
11339;BME280;5724;42.684;23.252;2023-04-27T05:37:49;94260.72;;;4.86;66.18
11339;BME280;5724;42.684;23.252;2023-04-27T05:40:14;94264.53;;;4.85;65.91
11339;BME280;5724;42.684;23.252;2023-04-27T05:42:39;94277.84;;;4.99;66.10
11339;BME280;5724;42.684;23.252;2023-04-27T05:45:06;94272.19;;;4.83;64.40
11339;BME280;5724;42.684;23.252;2023-04-27T05:47:31;94281.59;;;4.77;65.49
11339;BME280;5724;42.684;23.252;2023-04-27T05:49:57;94275.50;;;4.88;65.50
11339;BME280;5724;42.684;23.252;2023-04-27T05:52:22;94278.97;;;4.98;66.11
11339;BME280;5724;42.684;23.252;2023-04-27T05:54:53;94279.81;;;5.19;65.63
11339;BME280;5724;42.684;23.252;2023-04-27T05:57:19;94278.19;;;4.97;65.12
11339;BME280;5724;42.684;23.252;2023-04-27T05:59:44;94281.94;;;5.13;65.08
11339;BME280;5724;42.684;23.252;2023-04-27T06:02:09;94279.31;;;5.26;64.74
11339;BME280;5724;42.684;23.252;2023-04-27T06:04:35;94282.66;;;5.31;64.90
11339;BME280;5724;42.684;23.252;2023-04-27T06:07:06;94274.81;;;5.30;64.33
11339;BME280;5724;42.684;23.252;2023-04-27T06:09:31;94293.75;;;5.38;64.16
11339;BME280;5724;42.684;23.252;2023-04-27T06:11:57;94281.91;;;5.52;64.25
11339;BME280;5724;42.684;23.252;2023-04-27T06:14:24;94284.00;;;5.46;64.40
11339;BME280;5724;42.684;23.252;2023-04-27T06:16:49;94263.38;;;5.54;65.04
11339;BME280;5724;42.684;23.252;2023-04-27T06:19:15;94269.69;;;5.66;63.48
11339;BME280;5724;42.684;23.252;2023-04-27T06:21:41;94274.13;;;5.71;62.65
11339;BME280;5724;42.684;23.252;2023-04-27T06:24:07;94256.53;;;5.77;62.66
11339;BME280;5724;42.684;23.252;2023-04-27T06:26:33;94275.84;;;5.75;62.42
11339;BME280;5724;42.684;23.252;2023-04-27T06:28:58;94257.81;;;6.00;62.42
11339;BME280;5724;42.684;23.252;2023-04-27T06:31:25;94265.22;;;6.12;61.04
11339;BME280;5724;42.684;23.252;2023-04-27T06:33:50;94264.06;;;6.34;61.23
11339;BME280;5724;42.684;23.252;2023-04-27T06:36:16;94273.22;;;6.29;61.57
11339;BME280;5724;42.684;23.252;2023-04-27T06:38:42;94214.50;;;5.92;60.51
11339;BME280;5724;42.684;23.252;2023-04-27T06:41:07;94280.91;;;6.27;60.89
11339;BME280;5724;42.684;23.252;2023-04-27T06:43:33;94274.91;;;6.34;59.99
11339;BME280;5724;42.684;23.252;2023-04-27T06:45:58;94281.09;;;6.22;59.54
11339;BME280;5724;42.684;23.252;2023-04-27T06:48:24;94263.47;;;6.08;60.38
11339;BME280;5724;42.684;23.252;2023-04-27T06:50:49;94274.75;;;6.18;60.97
11339;BME280;5724;42.684;23.252;2023-04-27T06:53:15;94285.44;;;6.36;59.59
11339;BME280;5724;42.684;23.252;2023-04-27T06:55:41;94248.81;;;6.42;59.90
11339;BME280;5724;42.684;23.252;2023-04-27T06:58:07;94250.50;;;6.79;59.18
11339;BME280;5724;42.684;23.252;2023-04-27T07:00:33;94244.63;;;7.02;58.34
11339;BME280;5724;42.684;23.252;2023-04-27T07:02:59;94248.72;;;7.32;58.24
11339;BME280;5724;42.684;23.252;2023-04-27T07:05:24;94238.31;;;7.34;57.47
11339;BME280;5724;42.684;23.252;2023-04-27T07:07:50;94241.50;;;7.24;57.11
11339;BME280;5724;42.684;23.252;2023-04-27T07:10:16;94263.34;;;7.15;57.58
11339;BME280;5724;42.684;23.252;2023-04-27T07:12:42;94260.63;;;7.15;57.37
11339;BME280;5724;42.684;23.252;2023-04-27T07:15:07;94270.81;;;7.18;57.40
11339;BME280;5724;42.684;23.252;2023-04-27T07:17:33;94247.94;;;7.32;57.87
11339;BME280;5724;42.684;23.252;2023-04-27T07:20:00;94255.75;;;7.21;57.35
11339;BME280;5724;42.684;23.252;2023-04-27T07:22:28;94257.13;;;7.27;57.84
11339;BME280;5724;42.684;23.252;2023-04-27T07:24:53;94232.53;;;7.11;59.19
11339;BME280;5724;42.684;23.252;2023-04-27T07:27:19;94246.25;;;7.27;59.13
11339;BME280;5724;42.684;23.252;2023-04-27T07:29:44;94252.13;;;7.41;57.21
11339;BME280;5724;42.684;23.252;2023-04-27T07:32:10;94264.81;;;7.50;57.23
11339;BME280;5724;42.684;23.252;2023-04-27T07:34:35;94246.34;;;7.55;56.66
11339;BME280;5724;42.684;23.252;2023-04-27T07:37:01;94271.34;;;7.61;56.72
11339;BME280;5724;42.684;23.252;2023-04-27T07:39:26;94250.75;;;7.23;55.93
11339;BME280;5724;42.684;23.252;2023-04-27T07:41:52;94263.69;;;7.26;56.20
11339;BME280;5724;42.684;23.252;2023-04-27T07:44:18;94254.16;;;7.20;57.26
11339;BME280;5724;42.684;23.252;2023-04-27T07:46:44;94251.66;;;7.52;56.40
11339;BME280;5724;42.684;23.252;2023-04-27T07:49:12;94267.41;;;7.58;54.35
11339;BME280;5724;42.684;23.252;2023-04-27T07:51:38;94261.41;;;7.40;55.39
11339;BME280;5724;42.684;23.252;2023-04-27T07:54:04;94246.66;;;7.66;56.06
11339;BME280;5724;42.684;23.252;2023-04-27T07:56:31;94257.28;;;7.83;55.77
11339;BME280;5724;42.684;23.252;2023-04-27T07:58:57;94236.88;;;7.89;54.88
11339;BME280;5724;42.684;23.252;2023-04-27T08:01:23;94255.41;;;8.12;53.60
11339;BME280;5724;42.684;23.252;2023-04-27T08:03:48;94245.19;;;8.21;54.14
11339;BME280;5724;42.684;23.252;2023-04-27T08:06:14;94246.66;;;8.46;53.66
11339;BME280;5724;42.684;23.252;2023-04-27T08:08:40;94256.81;;;8.62;51.43
11339;BME280;5724;42.684;23.252;2023-04-27T08:11:11;94241.59;;;8.32;51.16
11339;BME280;5724;42.684;23.252;2023-04-27T08:13:36;94254.56;;;8.79;52.14
11339;BME280;5724;42.684;23.252;2023-04-27T08:16:02;94244.72;;;8.75;50.64
11339;BME280;5724;42.684;23.252;2023-04-27T08:18:27;94263.41;;;8.60;51.29
11339;BME280;5724;42.684;23.252;2023-04-27T08:20:53;94260.69;;;8.76;51.33
11339;BME280;5724;42.684;23.252;2023-04-27T08:23:19;94274.53;;;8.83;51.24
11339;BME280;5724;42.684;23.252;2023-04-27T08:25:45;94259.22;;;8.79;51.87
11339;BME280;5724;42.684;23.252;2023-04-27T08:28:13;94254.13;;;8.93;51.27
11339;BME280;5724;42.684;23.252;2023-04-27T08:30:40;94238.06;;;9.04;50.59
11339;BME280;5724;42.684;23.252;2023-04-27T08:33:06;94261.91;;;9.23;50.09
11339;BME280;5724;42.684;23.252;2023-04-27T08:35:32;94247.28;;;9.31;49.51
11339;BME280;5724;42.684;23.252;2023-04-27T08:37:58;94267.25;;;9.19;50.51
11339;BME280;5724;42.684;23.252;2023-04-27T08:40:23;94248.25;;;9.23;50.87
11339;BME280;5724;42.684;23.252;2023-04-27T08:42:57;94270.25;;;9.14;48.73
11339;BME280;5724;42.684;23.252;2023-04-27T08:45:23;94257.41;;;8.99;49.07
11339;BME280;5724;42.684;23.252;2023-04-27T08:47:50;94252.56;;;8.92;51.03
11339;BME280;5724;42.684;23.252;2023-04-27T08:50:17;94266.53;;;9.06;49.42
11339;BME280;5724;42.684;23.252;2023-04-27T08:52:46;94245.78;;;8.86;49.80
11339;BME280;5724;42.684;23.252;2023-04-27T08:55:12;94240.00;;;9.19;49.24
11339;BME280;5724;42.684;23.252;2023-04-27T08:57:38;94243.97;;;9.37;49.49
11339;BME280;5724;42.684;23.252;2023-04-27T09:00:04;94257.47;;;9.65;48.53
11339;BME280;5724;42.684;23.252;2023-04-27T09:02:44;94259.34;;;9.14;48.91
11339;BME280;5724;42.684;23.252;2023-04-27T09:05:21;94245.72;;;9.30;48.92
11339;BME280;5724;42.684;23.252;2023-04-27T09:08:03;94254.69;;;9.14;48.07
11339;BME280;5724;42.684;23.252;2023-04-27T09:10:51;94242.44;;;9.56;48.90
11339;BME280;5724;42.684;23.252;2023-04-27T09:13:17;94254.81;;;9.69;47.45
11339;BME280;5724;42.684;23.252;2023-04-27T09:15:43;94243.88;;;9.85;48.69
11339;BME280;5724;42.684;23.252;2023-04-27T09:18:18;94250.81;;;9.47;47.84
11339;BME280;5724;42.684;23.252;2023-04-27T09:20:46;94251.34;;;9.37;47.94
11339;BME280;5724;42.684;23.252;2023-04-27T09:23:33;94239.91;;;9.82;47.28
11339;BME280;5724;42.684;23.252;2023-04-27T09:26:04;94242.31;;;9.68;46.15
11339;BME280;5724;42.684;23.252;2023-04-27T09:28:34;94257.31;;;9.58;46.09
11339;BME280;5724;42.684;23.252;2023-04-27T09:31:02;94263.00;;;9.69;46.59
11339;BME280;5724;42.684;23.252;2023-04-27T09:33:30;94234.44;;;9.82;46.39
11339;BME280;5724;42.684;23.252;2023-04-27T09:36:00;94224.53;;;9.93;46.72
11339;BME280;5724;42.684;23.252;2023-04-27T09:38:26;94226.16;;;9.94;47.87
11339;BME280;5724;42.684;23.252;2023-04-27T09:40:52;94220.66;;;10.29;46.52
11339;BME280;5724;42.684;23.252;2023-04-27T09:43:18;94228.13;;;10.32;44.04
11339;BME280;5724;42.684;23.252;2023-04-27T09:45:44;94206.25;;;10.13;44.38
11339;BME280;5724;42.684;23.252;2023-04-27T09:48:11;94215.16;;;10.68;45.27
11339;BME280;5724;42.684;23.252;2023-04-27T09:50:38;94213.75;;;10.16;44.65
11339;BME280;5724;42.684;23.252;2023-04-27T09:53:10;94217.22;;;10.52;46.06
11339;BME280;5724;42.684;23.252;2023-04-27T09:56:10;94206.59;;;10.70;43.00
11339;BME280;5724;42.684;23.252;2023-04-27T10:01:48;94193.13;;;11.26;44.27
11339;BME280;5724;42.684;23.252;2023-04-27T10:04:56;94208.25;;;11.43;42.73
11339;BME280;5724;42.684;23.252;2023-04-27T10:07:25;94202.81;;;11.46;42.24
11339;BME280;5724;42.684;23.252;2023-04-27T10:09:51;94198.84;;;11.17;40.64
11339;BME280;5724;42.684;23.252;2023-04-27T10:14:53;94198.59;;;11.03;41.61
11339;BME280;5724;42.684;23.252;2023-04-27T10:17:24;94198.91;;;10.98;42.20
11339;BME280;5724;42.684;23.252;2023-04-27T10:20:07;94206.44;;;11.05;42.68
11339;BME280;5724;42.684;23.252;2023-04-27T10:22:39;94201.69;;;10.79;42.79
11339;BME280;5724;42.684;23.252;2023-04-27T10:25:17;94211.34;;;9.95;42.62
11339;BME280;5724;42.684;23.252;2023-04-27T10:27:48;94199.41;;;9.84;43.38
11339;BME280;5724;42.684;23.252;2023-04-27T10:30:16;94195.13;;;10.41;44.27
11339;BME280;5724;42.684;23.252;2023-04-27T10:33:02;94221.00;;;10.47;42.07
11339;BME280;5724;42.684;23.252;2023-04-27T10:35:41;94198.81;;;10.29;44.08
11339;BME280;5724;42.684;23.252;2023-04-27T10:38:08;94206.19;;;10.10;42.71
11339;BME280;5724;42.684;23.252;2023-04-27T10:41:03;94205.34;;;10.06;42.64
11339;BME280;5724;42.684;23.252;2023-04-27T10:43:33;94209.44;;;10.15;42.23
11339;BME280;5724;42.684;23.252;2023-04-27T10:46:26;94195.84;;;10.80;41.08
11339;BME280;5724;42.684;23.252;2023-04-27T10:48:52;94190.53;;;11.37;40.05
11339;BME280;5724;42.684;23.252;2023-04-27T10:51:17;94208.41;;;11.54;39.49
11339;BME280;5724;42.684;23.252;2023-04-27T10:53:42;94203.56;;;10.98;40.63
11339;BME280;5724;42.684;23.252;2023-04-27T10:56:08;94210.19;;;10.74;40.72
11339;BME280;5724;42.684;23.252;2023-04-27T10:58:37;94198.91;;;10.75;40.83
11339;BME280;5724;42.684;23.252;2023-04-27T11:01:03;94201.81;;;10.63;41.33
11339;BME280;5724;42.684;23.252;2023-04-27T11:03:28;94194.41;;;10.86;41.89
11339;BME280;5724;42.684;23.252;2023-04-27T11:06:02;94190.78;;;11.02;40.61
11339;BME280;5724;42.684;23.252;2023-04-27T11:08:29;94185.72;;;11.04;39.37
11339;BME280;5724;42.684;23.252;2023-04-27T11:11:00;94205.84;;;11.15;40.87
11339;BME280;5724;42.684;23.252;2023-04-27T11:13:26;94206.91;;;10.65;41.82
11339;BME280;5724;42.684;23.252;2023-04-27T11:15:58;94190.75;;;10.56;42.14
11339;BME280;5724;42.684;23.252;2023-04-27T11:18:26;94200.44;;;10.73;42.37
11339;BME280;5724;42.684;23.252;2023-04-27T11:20:53;94196.66;;;10.81;42.27
11339;BME280;5724;42.684;23.252;2023-04-27T11:23:29;94191.81;;;10.13;43.39
11339;BME280;5724;42.684;23.252;2023-04-27T11:26:14;94193.06;;;10.35;43.83
11339;BME280;5724;42.684;23.252;2023-04-27T11:29:00;94183.13;;;10.46;43.67
11339;BME280;5724;42.684;23.252;2023-04-27T11:31:42;94222.69;;;10.52;42.83
11339;BME280;5724;42.684;23.252;2023-04-27T11:34:15;94220.03;;;10.20;43.33
11339;BME280;5724;42.684;23.252;2023-04-27T11:36:41;94205.34;;;10.44;42.52
11339;BME280;5724;42.684;23.252;2023-04-27T11:39:07;94199.44;;;10.84;41.83
11339;BME280;5724;42.684;23.252;2023-04-27T11:41:36;94200.13;;;11.01;42.62
11339;BME280;5724;42.684;23.252;2023-04-27T11:44:07;94213.28;;;11.18;42.20
11339;BME280;5724;42.684;23.252;2023-04-27T11:46:36;94199.38;;;11.27;41.90
11339;BME280;5724;42.684;23.252;2023-04-27T11:49:05;94211.28;;;11.15;41.00
11339;BME280;5724;42.684;23.252;2023-04-27T11:51:33;94209.84;;;11.47;41.07
11339;BME280;5724;42.684;23.252;2023-04-27T11:54:03;94214.25;;;11.52;41.65
11339;BME280;5724;42.684;23.252;2023-04-27T11:56:36;94216.47;;;11.20;40.88
11339;BME280;5724;42.684;23.252;2023-04-27T11:59:02;94206.97;;;11.37;41.84
11339;BME280;5724;42.684;23.252;2023-04-27T12:01:30;94224.41;;;11.52;41.45
11339;BME280;5724;42.684;23.252;2023-04-27T12:03:56;94211.88;;;11.51;41.85
11339;BME280;5724;42.684;23.252;2023-04-27T12:06:27;94217.97;;;11.40;40.66
11339;BME280;5724;42.684;23.252;2023-04-27T12:08:57;94213.72;;;11.69;40.41
11339;BME280;5724;42.684;23.252;2023-04-27T12:11:25;94212.94;;;11.69;41.13
11339;BME280;5724;42.684;23.252;2023-04-27T12:13:54;94243.31;;;10.92;40.86
11339;BME280;5724;42.684;23.252;2023-04-27T12:16:20;94236.69;;;10.93;40.98
11339;BME280;5724;42.684;23.252;2023-04-27T12:18:51;94211.22;;;10.88;41.12
11339;BME280;5724;42.684;23.252;2023-04-27T12:21:16;94217.25;;;10.98;41.92
11339;BME280;5724;42.684;23.252;2023-04-27T12:23:42;94217.16;;;10.91;43.15
11339;BME280;5724;42.684;23.252;2023-04-27T12:26:08;94216.94;;;10.80;41.77
11339;BME280;5724;42.684;23.252;2023-04-27T12:28:34;94191.75;;;11.13;42.45
11339;BME280;5724;42.684;23.252;2023-04-27T12:31:02;94238.50;;;11.08;41.39
11339;BME280;5724;42.684;23.252;2023-04-27T12:33:28;94214.50;;;10.75;42.88
11339;BME280;5724;42.684;23.252;2023-04-27T12:35:54;94242.72;;;11.02;42.05
11339;BME280;5724;42.684;23.252;2023-04-27T12:38:19;94220.16;;;10.85;42.14
11339;BME280;5724;42.684;23.252;2023-04-27T12:40:47;94231.09;;;11.08;42.00
11339;BME280;5724;42.684;23.252;2023-04-27T12:43:13;94248.53;;;10.58;42.25
11339;BME280;5724;42.684;23.252;2023-04-27T12:45:38;94209.09;;;10.78;41.97
11339;BME280;5724;42.684;23.252;2023-04-27T12:48:04;94221.56;;;10.56;41.68
11339;BME280;5724;42.684;23.252;2023-04-27T12:50:31;94222.34;;;10.76;41.88
11339;BME280;5724;42.684;23.252;2023-04-27T12:52:56;94184.53;;;10.59;42.38
11339;BME280;5724;42.684;23.252;2023-04-27T12:55:22;94213.84;;;10.81;43.27
11339;BME280;5724;42.684;23.252;2023-04-27T12:57:47;94220.28;;;10.93;42.57
11339;BME280;5724;42.684;23.252;2023-04-27T13:00:13;94204.38;;;10.75;42.29
11339;BME280;5724;42.684;23.252;2023-04-27T13:02:39;94218.28;;;10.89;41.42
11339;BME280;5724;42.684;23.252;2023-04-27T13:05:06;94226.84;;;10.88;41.35
11339;BME280;5724;42.684;23.252;2023-04-27T13:07:32;94220.75;;;10.75;40.59
11339;BME280;5724;42.684;23.252;2023-04-27T13:09:58;94217.19;;;10.71;41.90
11339;BME280;5724;42.684;23.252;2023-04-27T13:12:23;94196.16;;;10.75;41.57
11339;BME280;5724;42.684;23.252;2023-04-27T13:14:49;94216.09;;;10.99;42.14